Terminal Aerodrome Forecast
Issued by NWS Lubbock, TX

Home | Current Version | Previous Version | Text Only | Print | Product List | Glossary On
Versions: 1 2 3 4 5 6 7 8 9 10 11 12 13 14 15
000
FTUS44 KLUB 221100
TAFLBB
TAF
KLBB 221120Z 2212/2312 18009KT P6SM SCT250
     FM221500 19017G27KT P6SM SCT080
     FM230100 18009KT P6SM SCT250=

USA.gov is the U.S. government's official web portal to all federal, state and local government web resources and services.